createdAt,value
2019-05-20T00:00:10.178Z,98977.87
2019-05-20T00:03:13.417Z,98981.05
2019-05-20T00:06:16.336Z,98991.33
2019-05-20T00:09:19.325Z,98993.64
2019-05-20T00:12:22.263Z,98997.59
2019-05-20T00:15:25.264Z,98986.52
2019-05-20T00:18:28.298Z,98986.27
2019-05-20T00:21:31.275Z,98985.08
2019-05-20T00:24:34.251Z,98987.41
2019-05-20T00:27:37.273Z,98987.77
2019-05-20T00:30:40.314Z,98989.38
2019-05-20T00:33:43.344Z,98981.88
2019-05-20T00:36:46.378Z,98987.61
2019-05-20T00:39:49.306Z,98984.17
2019-05-20T00:42:52.228Z,98986.24
2019-05-20T00:45:55.134Z,98989.38
2019-05-20T00:48:58.052Z,98987.55
2019-05-20T00:52:00.980Z,98979.17
2019-05-20T00:55:04.997Z,98974.17
2019-05-20T00:58:08.427Z,98977.00
2019-05-20T01:01:11.417Z,98984.44
2019-05-20T01:04:14.327Z,98987.48
2019-05-20T01:07:17.256Z,98989.25
2019-05-20T01:10:20.197Z,98978.45
2019-05-20T01:13:23.118Z,98976.70
2019-05-20T01:16:26.048Z,98974.47
2019-05-20T01:19:29.259Z,98976.42
2019-05-20T01:22:32.172Z,98972.25
2019-05-20T01:25:35.087Z,98970.56
2019-05-20T01:28:38.307Z,98973.63
2019-05-20T01:31:41.605Z,98978.83
2019-05-20T01:34:44.536Z,98979.77
2019-05-20T01:37:47.457Z,98982.44
2019-05-20T01:40:50.448Z,98980.98
2019-05-20T01:43:53.435Z,98984.66
2019-05-20T01:46:56.332Z,98985.70
2019-05-20T01:49:59.255Z,98989.12
2019-05-20T01:53:02.164Z,98996.97
2019-05-20T01:56:05.183Z,99002.72
2019-05-20T01:59:08.218Z,99004.88
2019-05-20T02:02:11.145Z,99008.92
2019-05-20T02:05:14.268Z,99009.47
2019-05-20T02:08:17.178Z,99009.73
2019-05-20T02:11:20.089Z,99013.08
2019-05-20T02:14:26.245Z,99013.22
2019-05-20T02:17:29.172Z,99008.22
2019-05-20T02:20:32.100Z,99003.67
2019-05-20T02:23:34.995Z,99004.34
2019-05-20T02:26:37.921Z,98998.64
2019-05-20T02:29:40.824Z,99000.41
2019-05-20T02:32:43.870Z,99000.23
2019-05-20T02:35:46.860Z,98990.44
2019-05-20T02:38:49.745Z,98999.48
2019-05-20T02:41:52.681Z,98994.23
2019-05-20T02:44:55.588Z,98988.13
2019-05-20T02:47:58.859Z,98996.38
2019-05-20T02:51:01.764Z,98992.11
2019-05-20T02:54:04.692Z,98995.37
2019-05-20T02:57:07.624Z,98994.48
2019-05-20T03:00:11.541Z,98996.13
2019-05-20T03:03:14.786Z,99001.44
2019-05-20T03:06:17.695Z,98992.66
2019-05-20T03:09:21.731Z,99002.42
2019-05-20T03:12:25.131Z,99006.12
2019-05-20T03:15:28.075Z,99008.79
2019-05-20T03:18:31.255Z,99009.93
2019-05-20T03:21:34.223Z,99002.89
2019-05-20T03:24:37.166Z,99010.54
2019-05-20T03:27:40.114Z,99008.67
2019-05-20T03:30:43.678Z,99008.48
2019-05-20T03:33:46.706Z,99010.55
2019-05-20T03:36:49.967Z,99021.27
2019-05-20T03:39:52.890Z,99021.56
2019-05-20T03:42:56.106Z,99017.61
2019-05-20T03:45:59.029Z,99021.66
2019-05-20T03:49:01.956Z,99019.50
2019-05-20T03:52:04.872Z,99021.38
2019-05-20T03:55:08.121Z,99024.36
2019-05-20T03:58:13.607Z,99032.33
2019-05-20T04:01:16.956Z,99024.83
2019-05-20T04:04:20.194Z,99032.16
2019-05-20T04:07:23.106Z,99027.72
2019-05-20T04:10:26.035Z,99034.51
2019-05-20T04:13:28.966Z,99035.89
2019-05-20T04:16:32.236Z,99044.54
2019-05-20T04:19:35.145Z,99043.23
2019-05-20T04:22:38.075Z,99056.19
2019-05-20T04:25:41.014Z,99046.52
2019-05-20T04:28:43.911Z,99046.47
2019-05-20T04:31:48.339Z,99056.21
2019-05-20T04:34:51.364Z,99059.31
2019-05-20T04:37:54.306Z,99056.73
2019-05-20T04:40:57.248Z,99050.75
2019-05-20T04:44:00.548Z,99060.31
2019-05-20T04:47:03.487Z,99055.73
2019-05-20T04:50:06.598Z,99059.87
2019-05-20T04:53:09.800Z,99062.45
2019-05-20T04:56:12.815Z,99060.25
2019-05-20T04:59:15.723Z,99043.08
2019-05-20T05:02:18.668Z,99055.58
2019-05-20T05:05:36.843Z,99050.41
2019-05-20T05:08:26.427Z,99043.94
2019-05-20T05:11:29.360Z,99047.67
2019-05-20T05:14:32.354Z,99056.19
2019-05-20T05:17:35.396Z,99059.08
2019-05-20T05:20:38.301Z,99058.40
2019-05-20T05:23:41.244Z,99068.06
2019-05-20T05:26:47.566Z,99061.63
2019-05-20T05:29:48.980Z,99060.89
2019-05-20T05:32:51.924Z,99059.84
2019-05-20T05:35:55.514Z,99065.44
2019-05-20T05:38:58.438Z,99059.17
2019-05-20T05:42:01.343Z,99055.25
2019-05-20T05:45:04.565Z,99057.04
2019-05-20T05:48:07.493Z,99060.42
2019-05-20T05:51:10.416Z,99057.29
2019-05-20T05:54:13.340Z,99055.83
2019-05-20T05:57:16.282Z,99059.84
2019-05-20T06:00:19.721Z,99062.34
2019-05-20T06:03:22.645Z,99062.47
2019-05-20T06:06:25.622Z,99058.48
2019-05-20T06:09:28.538Z,99062.52
2019-05-20T06:12:31.470Z,99063.53
2019-05-20T06:15:34.380Z,99064.55
2019-05-20T06:18:37.312Z,99062.25
2019-05-20T06:21:40.221Z,99068.28
2019-05-20T06:24:43.143Z,99070.00
2019-05-20T06:27:46.103Z,99074.08
2019-05-20T06:30:49.036Z,99077.92
2019-05-20T06:33:51.970Z,99071.58
2019-05-20T06:36:57.776Z,99076.33
2019-05-20T06:40:00.741Z,99080.67
2019-05-20T06:43:03.772Z,99074.98
2019-05-20T06:46:06.706Z,99082.20
2019-05-20T06:49:09.674Z,99085.02
2019-05-20T06:52:12.690Z,99084.01
2019-05-20T06:55:15.604Z,99084.55
2019-05-20T06:58:18.626Z,99088.94
2019-05-20T07:01:21.599Z,99091.81
2019-05-20T07:04:25.157Z,99087.58
2019-05-20T07:07:29.194Z,99089.30
2019-05-20T07:10:32.327Z,99084.31
2019-05-20T07:13:35.326Z,99086.41
2019-05-20T07:16:38.250Z,99083.80
2019-05-20T07:19:41.530Z,99087.69
2019-05-20T07:22:55.375Z,99085.33
2019-05-20T07:25:49.409Z,99092.83
2019-05-20T07:28:52.416Z,99094.98
2019-05-20T07:31:55.387Z,99093.37
2019-05-20T07:34:59.408Z,99096.20
2019-05-20T07:38:02.345Z,99096.36
2019-05-20T07:41:05.361Z,99106.94
2019-05-20T07:44:08.366Z,99101.25
2019-05-20T07:47:11.478Z,99104.00
2019-05-20T07:50:15.218Z,99102.90
2019-05-20T07:53:18.849Z,99099.95
2019-05-20T07:56:27.732Z,99090.70
2019-05-20T07:59:33.318Z,99088.45
2019-05-20T08:02:36.750Z,99093.28
2019-05-20T08:05:39.653Z,99089.48
2019-05-20T08:08:42.599Z,99089.20
2019-05-20T08:11:45.542Z,99088.53
2019-05-20T08:14:48.582Z,99082.44
2019-05-20T08:17:51.504Z,99094.28
2019-05-20T08:20:54.429Z,99096.59
2019-05-20T08:23:57.355Z,99098.95
2019-05-20T08:27:00.265Z,99103.43
2019-05-20T08:30:04.121Z,99097.98
2019-05-20T08:33:09.468Z,99107.44
2019-05-20T08:36:12.387Z,99106.56
2019-05-20T08:39:15.306Z,99108.66
2019-05-20T08:42:18.230Z,99113.07
2019-05-20T08:45:21.620Z,99111.55
2019-05-20T08:48:24.566Z,99115.69
2019-05-20T08:51:27.478Z,99116.66
2019-05-20T08:54:30.402Z,99111.55
2019-05-20T08:57:33.355Z,99117.83
2019-05-20T09:00:36.257Z,99119.24
2019-05-20T09:03:39.173Z,99113.85
2019-05-20T09:06:42.828Z,99120.35
2019-05-20T09:09:45.773Z,99113.68
2019-05-20T09:12:49.020Z,99115.20
2019-05-20T09:15:52.043Z,99111.20
2019-05-20T09:18:54.981Z,99116.34
2019-05-20T09:21:57.891Z,99118.90
2019-05-20T09:25:00.911Z,99123.58
2019-05-20T09:28:05.404Z,99124.52
2019-05-20T09:31:08.739Z,99130.16
2019-05-20T09:34:11.763Z,99126.65
2019-05-20T09:37:14.681Z,99132.95
2019-05-20T09:40:43.774Z,99136.69
2019-05-20T09:43:46.678Z,99136.21
2019-05-20T09:46:49.604Z,99144.21
2019-05-20T09:49:52.540Z,99144.02
2019-05-20T09:52:55.760Z,99143.16
2019-05-20T09:55:58.787Z,99136.98
2019-05-20T09:59:01.692Z,99145.46
2019-05-20T10:02:04.710Z,99148.31
2019-05-20T10:05:07.723Z,99146.39
2019-05-20T10:08:10.660Z,99154.86
2019-05-20T10:11:13.861Z,99160.11
2019-05-20T10:14:16.766Z,99160.11
2019-05-20T10:17:19.701Z,99156.08
2019-05-20T10:20:22.610Z,99153.99
2019-05-20T10:23:25.558Z,99161.44
2019-05-20T10:26:28.491Z,99162.19
2019-05-20T10:29:31.439Z,99155.83
2019-05-20T10:32:34.377Z,99158.86
2019-05-20T10:35:37.510Z,99154.30
2019-05-20T10:38:56.910Z,99158.91
2019-05-20T10:41:45.784Z,99148.59
2019-05-20T10:44:48.764Z,99144.00
2019-05-20T10:47:51.705Z,99156.13
2019-05-20T10:50:54.646Z,99161.77
2019-05-20T10:53:58.475Z,99154.33
2019-05-20T10:57:01.381Z,99160.45
2019-05-20T11:00:06.935Z,99163.84
2019-05-20T11:03:09.872Z,99158.51
2019-05-20T11:06:12.912Z,99171.03
2019-05-20T11:09:15.908Z,99167.12
2019-05-20T11:12:18.850Z,99165.98
2019-05-20T11:15:21.831Z,99167.89
2019-05-20T11:18:24.862Z,99165.90
2019-05-20T11:21:27.760Z,99164.47
2019-05-20T11:24:30.701Z,99168.79
2019-05-20T11:27:33.640Z,99167.45
2019-05-20T11:30:38.854Z,99172.61
2019-05-20T11:33:41.762Z,99168.42
2019-05-20T11:36:45.074Z,99171.27
2019-05-20T11:39:48.109Z,99172.83
2019-05-20T11:42:51.068Z,99176.53
2019-05-20T11:45:54.014Z,99181.98
2019-05-20T11:48:58.043Z,99179.00
2019-05-20T11:52:02.075Z,99169.67
2019-05-20T11:55:06.288Z,99175.75
2019-05-20T11:58:15.660Z,99171.67
2019-05-20T12:01:14.078Z,99178.64
2019-05-20T12:04:18.126Z,99176.36
2019-05-20T12:07:21.087Z,99171.28
2019-05-20T12:10:23.988Z,99179.95
2019-05-20T12:13:27.340Z,99172.53
2019-05-20T12:16:30.279Z,99178.53
2019-05-20T12:19:33.287Z,99180.54
2019-05-20T12:22:36.245Z,99172.81
2019-05-20T12:25:39.201Z,99167.36
2019-05-20T12:28:44.388Z,99166.80
2019-05-20T12:31:47.315Z,99163.08
2019-05-20T12:34:50.246Z,99155.53
2019-05-20T12:37:53.423Z,99164.42
2019-05-20T12:40:56.324Z,99164.78
2019-05-20T12:44:10.928Z,99163.55
2019-05-20T12:47:04.093Z,99167.75
2019-05-20T12:50:07.952Z,99167.48
2019-05-20T12:53:11.860Z,99162.23
2019-05-20T12:56:19.064Z,99151.13
2019-05-20T12:59:19.968Z,99158.31
2019-05-20T13:02:22.881Z,99157.84
2019-05-20T13:05:25.812Z,99158.97
2019-05-20T13:08:28.739Z,99155.26
2019-05-20T13:11:31.690Z,99151.52
2019-05-20T13:14:34.650Z,99151.73
2019-05-20T13:17:43.394Z,99152.20
2019-05-20T13:20:42.594Z,99159.92
2019-05-20T13:23:48.818Z,99158.31
2019-05-20T13:26:50.389Z,99162.69
2019-05-20T13:29:53.360Z,99163.09
2019-05-20T13:32:56.298Z,99167.94
2019-05-20T13:35:59.267Z,99165.17
2019-05-20T13:39:04.164Z,99161.17
2019-05-20T13:42:07.225Z,99165.06
2019-05-20T13:45:10.725Z,99169.28
2019-05-20T13:48:14.791Z,99171.36
2019-05-20T13:51:18.585Z,99172.05
2019-05-20T13:54:21.532Z,99172.55
2019-05-20T13:57:24.486Z,99176.14
2019-05-20T14:00:27.492Z,99173.38
2019-05-20T14:03:30.794Z,99167.20
2019-05-20T14:06:33.719Z,99162.87
2019-05-20T14:09:36.669Z,99176.53
2019-05-20T14:12:39.582Z,99169.55
2019-05-20T14:15:42.528Z,99165.06
2019-05-20T14:18:45.528Z,99165.55
2019-05-20T14:21:48.459Z,99169.19
2019-05-20T14:24:51.469Z,99167.47
2019-05-20T14:27:54.498Z,99162.69
2019-05-20T14:30:57.450Z,99154.84
2019-05-20T14:34:00.333Z,99158.00
2019-05-20T14:37:03.406Z,99148.64
2019-05-20T14:40:06.994Z,99160.20
2019-05-20T14:43:11.083Z,99161.92
2019-05-20T14:46:14.018Z,99162.86
2019-05-20T14:49:17.040Z,99166.61
2019-05-20T14:52:19.989Z,99159.92
2019-05-20T14:55:23.371Z,99167.95
2019-05-20T14:58:26.743Z,99161.45
2019-05-20T15:01:29.792Z,99169.47
2019-05-20T15:04:33.106Z,99160.58
2019-05-20T15:07:36.144Z,99161.14
2019-05-20T15:10:39.051Z,99152.56
2019-05-20T15:13:42.346Z,99157.14
2019-05-20T15:16:45.681Z,99146.74
2019-05-20T15:19:48.602Z,99149.80
2019-05-20T15:22:52.522Z,99145.79
2019-05-20T15:25:55.418Z,99151.23
2019-05-20T15:28:58.346Z,99142.99
2019-05-20T15:32:01.575Z,99143.77
2019-05-20T15:35:05.511Z,99142.55
2019-05-20T15:38:08.452Z,99153.42
2019-05-20T15:41:11.367Z,99146.35
2019-05-20T15:44:14.309Z,99144.93
2019-05-20T15:47:18.946Z,99151.52
2019-05-20T15:50:22.543Z,99146.73
2019-05-20T15:53:25.567Z,99146.55
2019-05-20T15:56:28.488Z,99138.28
2019-05-20T15:59:44.711Z,99130.14
2019-05-20T16:02:36.287Z,99134.91
2019-05-20T16:05:39.211Z,99131.00
2019-05-20T16:08:42.113Z,99130.82
2019-05-20T16:11:45.143Z,99127.20
2019-05-20T16:14:51.317Z,99128.92
2019-05-20T16:17:53.085Z,99127.28
2019-05-20T16:20:56.113Z,99137.30
2019-05-20T16:23:59.313Z,99132.63
2019-05-20T16:27:02.253Z,99142.45
2019-05-20T16:30:07.537Z,99156.20
2019-05-20T16:33:10.802Z,99161.38
2019-05-20T16:36:13.830Z,99157.53
2019-05-20T16:39:16.949Z,99161.66
2019-05-20T16:42:20.149Z,99160.52
2019-05-20T16:45:23.337Z,99157.84
2019-05-20T16:48:26.240Z,99158.49
2019-05-20T16:51:29.367Z,99159.44
2019-05-20T16:54:32.301Z,99155.34
2019-05-20T16:57:35.411Z,99166.41
2019-05-20T17:00:38.756Z,99169.08
2019-05-20T17:03:41.800Z,99163.73
2019-05-20T17:06:44.740Z,99161.06
2019-05-20T17:09:47.840Z,99165.16
2019-05-20T17:12:50.791Z,99154.00
2019-05-20T17:15:53.728Z,99151.80
2019-05-20T17:18:56.644Z,99149.99
2019-05-20T17:21:59.569Z,99154.48
2019-05-20T17:25:02.538Z,99165.08
2019-05-20T17:28:05.586Z,99161.94
2019-05-20T17:31:08.516Z,99163.75
2019-05-20T17:34:11.449Z,99170.44
2019-05-20T17:37:14.450Z,99178.36
2019-05-20T17:40:18.387Z,99184.63
2019-05-20T17:43:21.728Z,99185.88
2019-05-20T17:46:25.757Z,99188.64
2019-05-20T17:49:29.006Z,99201.05
2019-05-20T17:52:31.912Z,99199.16
2019-05-20T17:55:34.890Z,99196.77
2019-05-20T17:58:38.036Z,99199.63
2019-05-20T18:01:41.178Z,99202.39
2019-05-20T18:04:44.129Z,99208.33
2019-05-20T18:07:47.038Z,99209.83
2019-05-20T18:10:49.979Z,99213.36
2019-05-20T18:13:53.021Z,99212.42
2019-05-20T18:16:56.584Z,99205.75
2019-05-20T18:19:59.581Z,99211.08
2019-05-20T18:23:02.516Z,99215.11
2019-05-20T18:26:05.822Z,99207.36
2019-05-20T18:29:08.771Z,99209.56
2019-05-20T18:32:11.800Z,99207.36
2019-05-20T18:35:14.704Z,99201.23
2019-05-20T18:38:17.629Z,99198.77
2019-05-20T18:41:20.761Z,99199.72
2019-05-20T18:44:23.733Z,99201.14
2019-05-20T18:47:26.665Z,99202.10
2019-05-20T18:50:29.677Z,99214.50
2019-05-20T18:53:32.949Z,99216.34
2019-05-20T18:56:35.932Z,99216.51
2019-05-20T18:59:38.984Z,99219.37
2019-05-20T19:02:42.353Z,99218.89
2019-05-20T19:05:45.439Z,99223.00
2019-05-20T19:08:48.464Z,99212.01
2019-05-20T19:11:51.377Z,99213.68
2019-05-20T19:14:55.442Z,99211.15
2019-05-20T19:17:58.394Z,99212.73
2019-05-20T19:21:01.333Z,99208.82
2019-05-20T19:24:04.681Z,99208.45
2019-05-20T19:27:07.588Z,99205.66
2019-05-20T19:30:10.844Z,99217.97
2019-05-20T19:33:14.904Z,99211.13
2019-05-20T19:36:17.849Z,99219.33
2019-05-20T19:39:22.073Z,99215.07
2019-05-20T19:42:25.376Z,99214.83
2019-05-20T19:45:28.755Z,99213.73
2019-05-20T19:48:31.799Z,99220.12
2019-05-20T19:51:34.727Z,99222.86
2019-05-20T19:54:37.637Z,99223.42
2019-05-20T19:57:40.583Z,99227.56
2019-05-20T20:00:43.599Z,99233.69
2019-05-20T20:03:46.566Z,99231.91
2019-05-20T20:06:49.661Z,99234.88
2019-05-20T20:09:52.732Z,99236.75
2019-05-20T20:12:55.631Z,99235.30
2019-05-20T20:16:00.248Z,99233.60
2019-05-20T20:19:03.209Z,99238.02
2019-05-20T20:22:06.523Z,99239.28
2019-05-20T20:25:09.652Z,99243.92
2019-05-20T20:28:13.017Z,99244.80
2019-05-20T20:31:16.358Z,99246.13
2019-05-20T20:34:19.279Z,99242.73
2019-05-20T20:37:22.194Z,99237.25
2019-05-20T20:40:25.109Z,99242.84
2019-05-20T20:43:28.119Z,99247.44
2019-05-20T20:46:31.270Z,99251.16
2019-05-20T20:49:34.356Z,99245.35
2019-05-20T20:52:37.440Z,99251.33
2019-05-20T20:55:40.364Z,99247.99
2019-05-20T20:58:43.277Z,99246.31
2019-05-20T21:01:46.859Z,99256.95
2019-05-20T21:04:50.276Z,99261.93
2019-05-20T21:07:53.514Z,99254.95
2019-05-20T21:10:56.426Z,99249.18
2019-05-20T21:13:59.337Z,99253.58
2019-05-20T21:17:02.857Z,99255.78
2019-05-20T21:20:06.155Z,99253.02
2019-05-20T21:23:09.079Z,99250.05
2019-05-20T21:26:11.999Z,99255.97
2019-05-20T21:29:14.935Z,99249.84
2019-05-20T21:32:17.883Z,99257.30
2019-05-20T21:35:21.200Z,99253.61
2019-05-20T21:38:24.109Z,99254.52
2019-05-20T21:41:27.015Z,99252.71
2019-05-20T21:44:30.004Z,99250.12
2019-05-20T21:47:32.923Z,99252.36
2019-05-20T21:50:35.835Z,99254.91
2019-05-20T21:53:38.771Z,99259.42
2019-05-20T21:56:41.670Z,99251.38
2019-05-20T21:59:44.597Z,99249.96
2019-05-20T22:02:47.510Z,99257.50
2019-05-20T22:05:50.530Z,99252.83
2019-05-20T22:08:53.817Z,99261.19
2019-05-20T22:11:56.725Z,99260.60
2019-05-20T22:14:59.654Z,99264.64
2019-05-20T22:18:02.772Z,99263.35
2019-05-20T22:21:07.368Z,99269.75
2019-05-20T22:24:10.725Z,99263.94
2019-05-20T22:27:13.941Z,99267.95
2019-05-20T22:30:16.899Z,99265.16
2019-05-20T22:33:19.814Z,99263.52
2019-05-20T22:36:23.863Z,99264.09
2019-05-20T22:39:26.768Z,99255.22
2019-05-20T22:42:29.707Z,99258.36
2019-05-20T22:45:32.662Z,99258.48
2019-05-20T22:48:35.583Z,99260.52
2019-05-20T22:51:38.522Z,99264.88
2019-05-20T22:54:41.474Z,99265.73
2019-05-20T22:57:44.724Z,99270.05
2019-05-20T23:00:47.634Z,99273.02
2019-05-20T23:03:56.374Z,99270.13
2019-05-20T23:06:55.416Z,99270.80
2019-05-20T23:09:58.323Z,99279.61
2019-05-20T23:13:01.257Z,99273.98
2019-05-20T23:16:04.185Z,99278.61
2019-05-20T23:19:07.141Z,99270.52
2019-05-20T23:22:10.059Z,99272.94
2019-05-20T23:25:12.967Z,99268.55
2019-05-20T23:28:16.223Z,99264.94
2019-05-20T23:31:19.251Z,99268.22
2019-05-20T23:34:22.171Z,99261.34
2019-05-20T23:37:25.405Z,99258.75
2019-05-20T23:40:28.329Z,99256.07
2019-05-20T23:43:31.271Z,99253.68
2019-05-20T23:46:34.180Z,99248.73
2019-05-20T23:49:37.131Z,99252.81
2019-05-20T23:52:40.102Z,99256.76
2019-05-20T23:55:43.863Z,99253.55
2019-05-20T23:58:47.200Z,99256.49
